Washburn, IA

4:01 AM CDT on September 20, 2014 (GMT -0500)
Vinton-Veterans Memorial | Change Station
CLOSE
Current Station
Airport
Location: Vinton,
Elevation: 846 ft
Nearby Weather Stations

Elev 846 ft 42.22 °N, 92.03 °W | Updated 6 minutes ago

Thunderstorm
Thunderstorm
68 °F
Feels Like 68 °F
N
8
Wind Variable Wind from WSW

Today
High -- | Low -- °F
--% Chance of Precip.
Yesterday
High -- | Low -- °F
Precip. -- in
6:54 AM 7:10 PM
Waning Crescent, 13% visible
Pressure 29.88 in
Visibility 7.0 miles
Clouds Scattered Clouds 1200 ft
Scattered Clouds 6000 ft
Scattered Clouds 8500 ft
Dew Point 64 °F
Humidity 88%
Rainfall 0.00 in
Snow Depth Not available.
UV 0 out of 12
Pollen 5.30 out of 12
Air Quality Not available.
Flu Activity Not available.
METAR KVTI 200855Z AUTO 25007KT 7SM RA SCT012 SCT060 SCT085 20/18 A2988 RMK AO2 T02000180

More Conditions Fewer Conditions

Pressure 29.88 in
Visibility 7.0 miles
Clouds Scattered Clouds 1200 ft
Scattered Clouds 6000 ft
Scattered Clouds 8500 ft
Dew Point 64 °F
Humidity 88%
Rainfall 0.00 in
Snow Depth Not available.
UV 0 out of 12
Pollen 5.30 out of 12
Air Quality Not available.
Flu Activity Not available.
METAR KVTI 200855Z AUTO 25007KT 7SM RA SCT012 SCT060 SCT085 20/18 A2988 RMK AO2 T02000180

More Conditions Fewer Conditions

10-Day Weather Forecast

Almanac

Astronomy

Sep. 20, 2014 Rise Set
Actual Time 6:54 AM CDT 7:10 PM CDT
Civil Twilight 6:26 AM CDT 7:38 PM CDT
Nautical Twilight 5:53 AM CDT 8:11 PM CDT
Astronomical Twilight 5:19 AM CDT 8:44 PM CDT
Moon 3:30 AM CDT 5:16 PM CDT
Length of Visible Light 13h 11m
Length of Day
12h 15m
Tomorrow will be 2m 51s shorter.
Waning Crescent, 13% of the Moon is Illuminated
Today
Waning Crescent
Sep 24
New
Oct 1
First Quarter
Oct 8
Full
Oct 15
Last Quarter

Today's Extremes

State Highs State Lows

Community

WunderPhotos

Upload Photos

1,754,793 photos uploaded!

WunderBlogs® & News

Nearby

Snow Depth

Station Depth Elevation
No new snow has been reported.

Earthquake Activity

City Distance Mag. Time & Date
No recent earthquake activity has been reported nearby.
Minimum magnitude displayed is 2.5.

Coastal Water Temperatures

Place Temperature
No Stations Reporting

Nearby Weather Stations